sensor_id;sensor_type;location;lat;lon;timestamp;P1;durP1;ratioP1;P2;durP2;ratioP2
10458;SDS011;5277;48.722;8.736;2024-02-15T00:01:55;3.83;;;2.33;;
10458;SDS011;5277;48.722;8.736;2024-02-15T00:04:20;7.75;;;2.70;;
10458;SDS011;5277;48.722;8.736;2024-02-15T00:06:46;6.80;;;2.80;;
10458;SDS011;5277;48.722;8.736;2024-02-15T00:09:12;3.38;;;2.20;;
10458;SDS011;5277;48.722;8.736;2024-02-15T00:11:37;9.38;;;2.13;;
10458;SDS011;5277;48.722;8.736;2024-02-15T00:14:04;8.07;;;2.58;;
10458;SDS011;5277;48.722;8.736;2024-02-15T00:16:30;8.20;;;2.70;;
10458;SDS011;5277;48.722;8.736;2024-02-15T00:18:56;2.88;;;2.10;;
10458;SDS011;5277;48.722;8.736;2024-02-15T00:21:21;6.88;;;2.20;;
10458;SDS011;5277;48.722;8.736;2024-02-15T00:23:50;3.22;;;2.00;;
10458;SDS011;5277;48.722;8.736;2024-02-15T00:26:16;6.78;;;2.70;;
10458;SDS011;5277;48.722;8.736;2024-02-15T00:28:41;4.30;;;2.40;;
10458;SDS011;5277;48.722;8.736;2024-02-15T00:31:07;4.68;;;2.40;;
10458;SDS011;5277;48.722;8.736;2024-02-15T00:33:33;4.50;;;2.15;;
10458;SDS011;5277;48.722;8.736;2024-02-15T00:36:00;4.38;;;2.05;;
10458;SDS011;5277;48.722;8.736;2024-02-15T00:38:26;5.25;;;2.65;;
10458;SDS011;5277;48.722;8.736;2024-02-15T00:40:52;8.27;;;2.28;;
10458;SDS011;5277;48.722;8.736;2024-02-15T00:43:18;6.30;;;2.05;;
10458;SDS011;5277;48.722;8.736;2024-02-15T00:45:44;4.60;;;1.95;;
10458;SDS011;5277;48.722;8.736;2024-02-15T00:48:10;5.85;;;2.22;;
10458;SDS011;5277;48.722;8.736;2024-02-15T00:50:36;5.07;;;2.47;;
10458;SDS011;5277;48.722;8.736;2024-02-15T00:53:02;10.73;;;2.45;;
10458;SDS011;5277;48.722;8.736;2024-02-15T00:55:27;4.05;;;2.30;;
10458;SDS011;5277;48.722;8.736;2024-02-15T00:57:53;9.13;;;2.30;;
10458;SDS011;5277;48.722;8.736;2024-02-15T01:00:18;7.18;;;2.30;;
10458;SDS011;5277;48.722;8.736;2024-02-15T01:02:45;5.95;;;1.90;;
10458;SDS011;5277;48.722;8.736;2024-02-15T01:05:11;10.18;;;2.70;;
10458;SDS011;5277;48.722;8.736;2024-02-15T01:07:36;4.60;;;2.55;;
10458;SDS011;5277;48.722;8.736;2024-02-15T01:10:02;10.68;;;2.47;;
10458;SDS011;5277;48.722;8.736;2024-02-15T01:12:28;9.20;;;2.40;;
10458;SDS011;5277;48.722;8.736;2024-02-15T01:14:54;4.45;;;2.05;;
10458;SDS011;5277;48.722;8.736;2024-02-15T01:17:21;4.28;;;2.28;;
10458;SDS011;5277;48.722;8.736;2024-02-15T01:19:46;12.02;;;2.22;;
10458;SDS011;5277;48.722;8.736;2024-02-15T01:22:12;9.02;;;2.47;;
10458;SDS011;5277;48.722;8.736;2024-02-15T01:24:38;5.63;;;2.13;;
10458;SDS011;5277;48.722;8.736;2024-02-15T01:27:03;6.03;;;2.28;;
10458;SDS011;5277;48.722;8.736;2024-02-15T01:29:29;5.60;;;2.70;;
10458;SDS011;5277;48.722;8.736;2024-02-15T01:31:55;3.38;;;2.05;;
10458;SDS011;5277;48.722;8.736;2024-02-15T01:34:20;5.93;;;2.10;;
10458;SDS011;5277;48.722;8.736;2024-02-15T01:36:47;5.20;;;2.33;;
10458;SDS011;5277;48.722;8.736;2024-02-15T01:39:14;5.28;;;1.77;;
10458;SDS011;5277;48.722;8.736;2024-02-15T01:41:39;6.55;;;2.30;;
10458;SDS011;5277;48.722;8.736;2024-02-15T01:44:05;3.80;;;2.08;;
10458;SDS011;5277;48.722;8.736;2024-02-15T01:46:31;3.83;;;1.83;;
10458;SDS011;5277;48.722;8.736;2024-02-15T01:48:57;6.25;;;2.45;;
10458;SDS011;5277;48.722;8.736;2024-02-15T01:51:23;10.60;;;2.38;;
10458;SDS011;5277;48.722;8.736;2024-02-15T01:53:53;6.28;;;2.30;;
10458;SDS011;5277;48.722;8.736;2024-02-15T01:56:19;7.13;;;2.20;;
10458;SDS011;5277;48.722;8.736;2024-02-15T01:58:46;7.70;;;2.33;;
10458;SDS011;5277;48.722;8.736;2024-02-15T02:01:12;6.70;;;2.05;;
10458;SDS011;5277;48.722;8.736;2024-02-15T02:03:39;5.57;;;2.20;;
10458;SDS011;5277;48.722;8.736;2024-02-15T02:06:05;7.53;;;2.00;;
10458;SDS011;5277;48.722;8.736;2024-02-15T02:08:30;3.72;;;2.20;;
10458;SDS011;5277;48.722;8.736;2024-02-15T02:10:56;7.38;;;2.47;;
10458;SDS011;5277;48.722;8.736;2024-02-15T02:13:22;5.65;;;2.10;;
10458;SDS011;5277;48.722;8.736;2024-02-15T02:15:48;7.53;;;2.33;;
10458;SDS011;5277;48.722;8.736;2024-02-15T02:18:14;5.07;;;1.92;;
10458;SDS011;5277;48.722;8.736;2024-02-15T02:20:40;7.38;;;1.90;;
10458;SDS011;5277;48.722;8.736;2024-02-15T02:23:16;5.30;;;1.90;;
10458;SDS011;5277;48.722;8.736;2024-02-15T02:25:45;3.90;;;1.88;;
10458;SDS011;5277;48.722;8.736;2024-02-15T02:28:14;7.57;;;1.90;;
10458;SDS011;5277;48.722;8.736;2024-02-15T02:30:41;13.68;;;2.38;;
10458;SDS011;5277;48.722;8.736;2024-02-15T02:33:10;9.30;;;2.03;;
10458;SDS011;5277;48.722;8.736;2024-02-15T02:35:36;6.73;;;1.90;;
10458;SDS011;5277;48.722;8.736;2024-02-15T02:38:02;2.90;;;1.80;;
10458;SDS011;5277;48.722;8.736;2024-02-15T02:40:28;5.57;;;2.27;;
10458;SDS011;5277;48.722;8.736;2024-02-15T02:42:54;8.50;;;1.80;;
10458;SDS011;5277;48.722;8.736;2024-02-15T02:45:26;5.47;;;2.17;;
10458;SDS011;5277;48.722;8.736;2024-02-15T02:47:52;7.27;;;1.90;;
10458;SDS011;5277;48.722;8.736;2024-02-15T02:50:19;3.20;;;1.90;;
10458;SDS011;5277;48.722;8.736;2024-02-15T02:52:45;5.23;;;2.27;;
10458;SDS011;5277;48.722;8.736;2024-02-15T02:55:13;2.97;;;1.97;;
10458;SDS011;5277;48.722;8.736;2024-02-15T02:57:39;6.47;;;2.07;;
10458;SDS011;5277;48.722;8.736;2024-02-15T03:00:07;10.80;;;1.83;;
10458;SDS011;5277;48.722;8.736;2024-02-15T03:02:37;6.47;;;1.90;;
10458;SDS011;5277;48.722;8.736;2024-02-15T03:05:07;8.03;;;2.07;;
10458;SDS011;5277;48.722;8.736;2024-02-15T03:07:33;4.67;;;1.63;;
10458;SDS011;5277;48.722;8.736;2024-02-15T03:10:03;10.53;;;1.80;;
10458;SDS011;5277;48.722;8.736;2024-02-15T03:12:30;5.20;;;1.83;;
10458;SDS011;5277;48.722;8.736;2024-02-15T03:14:56;4.40;;;1.40;;
10458;SDS011;5277;48.722;8.736;2024-02-15T03:17:24;2.43;;;1.80;;
10458;SDS011;5277;48.722;8.736;2024-02-15T03:19:50;3.13;;;1.70;;
10458;SDS011;5277;48.722;8.736;2024-02-15T03:22:16;3.80;;;1.80;;
10458;SDS011;5277;48.722;8.736;2024-02-15T03:24:42;5.60;;;2.10;;
10458;SDS011;5277;48.722;8.736;2024-02-15T03:27:08;10.53;;;1.80;;
10458;SDS011;5277;48.722;8.736;2024-02-15T03:29:35;3.77;;;2.30;;
10458;SDS011;5277;48.722;8.736;2024-02-15T03:32:01;4.20;;;2.20;;
10458;SDS011;5277;48.722;8.736;2024-02-15T03:34:29;5.10;;;2.40;;
10458;SDS011;5277;48.722;8.736;2024-02-15T03:36:56;5.77;;;2.20;;
10458;SDS011;5277;48.722;8.736;2024-02-15T03:39:22;5.30;;;2.00;;
10458;SDS011;5277;48.722;8.736;2024-02-15T03:41:48;7.00;;;2.30;;
10458;SDS011;5277;48.722;8.736;2024-02-15T03:44:15;3.10;;;1.63;;
10458;SDS011;5277;48.722;8.736;2024-02-15T03:46:43;3.35;;;1.92;;
10458;SDS011;5277;48.722;8.736;2024-02-15T03:49:15;3.38;;;2.08;;
10458;SDS011;5277;48.722;8.736;2024-02-15T03:51:45;8.75;;;2.10;;
10458;SDS011;5277;48.722;8.736;2024-02-15T03:54:11;3.20;;;2.00;;
10458;SDS011;5277;48.722;8.736;2024-02-15T03:56:37;4.88;;;2.08;;
10458;SDS011;5277;48.722;8.736;2024-02-15T03:59:11;4.47;;;1.90;;
10458;SDS011;5277;48.722;8.736;2024-02-15T04:01:38;2.45;;;1.77;;
10458;SDS011;5277;48.722;8.736;2024-02-15T04:04:04;7.17;;;2.20;;
10458;SDS011;5277;48.722;8.736;2024-02-15T04:06:30;8.40;;;2.63;;
10458;SDS011;5277;48.722;8.736;2024-02-15T04:08:58;3.40;;;2.17;;
10458;SDS011;5277;48.722;8.736;2024-02-15T04:11:24;7.17;;;2.63;;
10458;SDS011;5277;48.722;8.736;2024-02-15T04:13:50;4.85;;;2.70;;
10458;SDS011;5277;48.722;8.736;2024-02-15T04:16:16;3.47;;;2.17;;
10458;SDS011;5277;48.722;8.736;2024-02-15T04:18:41;6.07;;;2.47;;
10458;SDS011;5277;48.722;8.736;2024-02-15T04:21:09;6.38;;;2.15;;
10458;SDS011;5277;48.722;8.736;2024-02-15T04:23:34;2.47;;;1.80;;
10458;SDS011;5277;48.722;8.736;2024-02-15T04:26:00;4.17;;;1.63;;
10458;SDS011;5277;48.722;8.736;2024-02-15T04:28:25;5.68;;;1.90;;
10458;SDS011;5277;48.722;8.736;2024-02-15T04:30:52;4.22;;;1.40;;
10458;SDS011;5277;48.722;8.736;2024-02-15T04:33:17;3.45;;;1.65;;
10458;SDS011;5277;48.722;8.736;2024-02-15T04:35:43;2.95;;;1.75;;
10458;SDS011;5277;48.722;8.736;2024-02-15T04:38:09;2.35;;;1.80;;
10458;SDS011;5277;48.722;8.736;2024-02-15T04:40:34;3.07;;;1.83;;
10458;SDS011;5277;48.722;8.736;2024-02-15T04:43:02;2.90;;;1.67;;
10458;SDS011;5277;48.722;8.736;2024-02-15T04:45:29;2.80;;;1.80;;
10458;SDS011;5277;48.722;8.736;2024-02-15T04:47:56;4.55;;;1.98;;
10458;SDS011;5277;48.722;8.736;2024-02-15T04:50:22;3.00;;;1.70;;
10458;SDS011;5277;48.722;8.736;2024-02-15T04:52:47;2.17;;;1.65;;
10458;SDS011;5277;48.722;8.736;2024-02-15T04:55:14;3.50;;;1.70;;
10458;SDS011;5277;48.722;8.736;2024-02-15T04:57:40;2.45;;;1.60;;
10458;SDS011;5277;48.722;8.736;2024-02-15T05:00:06;4.22;;;1.50;;
10458;SDS011;5277;48.722;8.736;2024-02-15T05:02:38;3.50;;;1.75;;
10458;SDS011;5277;48.722;8.736;2024-02-15T05:05:08;4.63;;;1.63;;
10458;SDS011;5277;48.722;8.736;2024-02-15T05:07:34;3.30;;;1.55;;
10458;SDS011;5277;48.722;8.736;2024-02-15T05:10:04;1.77;;;1.55;;
10458;SDS011;5277;48.722;8.736;2024-02-15T05:12:34;2.88;;;1.75;;
10458;SDS011;5277;48.722;8.736;2024-02-15T05:15:00;3.70;;;1.45;;
10458;SDS011;5277;48.722;8.736;2024-02-15T05:17:27;4.22;;;1.63;;
10458;SDS011;5277;48.722;8.736;2024-02-15T05:19:56;2.45;;;1.60;;
10458;SDS011;5277;48.722;8.736;2024-02-15T05:22:24;5.80;;;1.40;;
10458;SDS011;5277;48.722;8.736;2024-02-15T05:24:53;3.20;;;1.60;;
10458;SDS011;5277;48.722;8.736;2024-02-15T05:27:20;6.72;;;1.58;;
10458;SDS011;5277;48.722;8.736;2024-02-15T05:29:45;1.83;;;1.65;;
10458;SDS011;5277;48.722;8.736;2024-02-15T05:32:11;4.28;;;1.63;;
10458;SDS011;5277;48.722;8.736;2024-02-15T05:34:38;3.90;;;1.95;;
10458;SDS011;5277;48.722;8.736;2024-02-15T05:37:05;3.92;;;1.60;;
10458;SDS011;5277;48.722;8.736;2024-02-15T05:39:32;1.92;;;1.33;;
10458;SDS011;5277;48.722;8.736;2024-02-15T05:41:57;3.03;;;1.40;;
10458;SDS011;5277;48.722;8.736;2024-02-15T05:44:25;4.05;;;1.42;;
10458;SDS011;5277;48.722;8.736;2024-02-15T05:46:51;5.07;;;1.50;;
10458;SDS011;5277;48.722;8.736;2024-02-15T05:49:17;2.40;;;1.50;;
10458;SDS011;5277;48.722;8.736;2024-02-15T05:51:43;9.07;;;1.90;;
10458;SDS011;5277;48.722;8.736;2024-02-15T05:54:09;2.87;;;1.90;;
10458;SDS011;5277;48.722;8.736;2024-02-15T05:56:36;2.63;;;1.70;;
10458;SDS011;5277;48.722;8.736;2024-02-15T05:59:01;2.38;;;1.60;;
10458;SDS011;5277;48.722;8.736;2024-02-15T06:01:35;4.80;;;1.73;;
10458;SDS011;5277;48.722;8.736;2024-02-15T06:04:01;3.33;;;1.77;;
10458;SDS011;5277;48.722;8.736;2024-02-15T06:06:29;2.47;;;1.83;;
10458;SDS011;5277;48.722;8.736;2024-02-15T06:08:55;4.07;;;1.80;;
10458;SDS011;5277;48.722;8.736;2024-02-15T06:11:24;7.77;;;1.63;;
10458;SDS011;5277;48.722;8.736;2024-02-15T06:13:50;5.13;;;1.90;;
10458;SDS011;5277;48.722;8.736;2024-02-15T06:16:15;4.57;;;1.93;;
10458;SDS011;5277;48.722;8.736;2024-02-15T06:18:41;4.03;;;1.70;;
10458;SDS011;5277;48.722;8.736;2024-02-15T06:21:07;5.27;;;2.10;;
10458;SDS011;5277;48.722;8.736;2024-02-15T06:23:33;4.33;;;1.83;;
10458;SDS011;5277;48.722;8.736;2024-02-15T06:26:00;5.37;;;1.80;;
10458;SDS011;5277;48.722;8.736;2024-02-15T06:28:27;6.13;;;2.10;;
10458;SDS011;5277;48.722;8.736;2024-02-15T06:31:31;3.50;;;1.90;;
10458;SDS011;5277;48.722;8.736;2024-02-15T06:34:16;5.95;;;2.00;;
10458;SDS011;5277;48.722;8.736;2024-02-15T06:37:00;3.13;;;1.80;;
10458;SDS011;5277;48.722;8.736;2024-02-15T06:39:44;4.87;;;2.33;;
10458;SDS011;5277;48.722;8.736;2024-02-15T06:42:14;4.37;;;2.20;;
10458;SDS011;5277;48.722;8.736;2024-02-15T06:44:42;3.43;;;1.90;;
10458;SDS011;5277;48.722;8.736;2024-02-15T06:47:08;5.23;;;2.00;;
10458;SDS011;5277;48.722;8.736;2024-02-15T06:49:36;3.83;;;1.77;;
10458;SDS011;5277;48.722;8.736;2024-02-15T06:52:05;2.93;;;1.80;;
10458;SDS011;5277;48.722;8.736;2024-02-15T06:54:32;2.07;;;1.70;;
10458;SDS011;5277;48.722;8.736;2024-02-15T06:56:59;3.53;;;1.87;;
10458;SDS011;5277;48.722;8.736;2024-02-15T06:59:24;3.00;;;2.03;;
10458;SDS011;5277;48.722;8.736;2024-02-15T07:01:50;3.07;;;2.10;;
10458;SDS011;5277;48.722;8.736;2024-02-15T07:04:17;3.90;;;2.33;;
10458;SDS011;5277;48.722;8.736;2024-02-15T07:06:43;4.30;;;2.40;;
10458;SDS011;5277;48.722;8.736;2024-02-15T07:09:12;4.03;;;1.87;;
10458;SDS011;5277;48.722;8.736;2024-02-15T07:11:40;7.20;;;2.43;;
10458;SDS011;5277;48.722;8.736;2024-02-15T07:14:06;4.50;;;2.30;;
10458;SDS011;5277;48.722;8.736;2024-02-15T07:16:32;5.17;;;3.40;;
10458;SDS011;5277;48.722;8.736;2024-02-15T07:18:58;4.00;;;2.60;;
10458;SDS011;5277;48.722;8.736;2024-02-15T07:21:24;4.87;;;2.10;;
10458;SDS011;5277;48.722;8.736;2024-02-15T07:23:54;2.70;;;2.00;;
10458;SDS011;5277;48.722;8.736;2024-02-15T07:26:24;3.30;;;2.07;;
10458;SDS011;5277;48.722;8.736;2024-02-15T07:28:53;3.25;;;2.20;;
10458;SDS011;5277;48.722;8.736;2024-02-15T07:31:20;3.55;;;2.40;;
10458;SDS011;5277;48.722;8.736;2024-02-15T07:33:49;3.35;;;2.00;;
10458;SDS011;5277;48.722;8.736;2024-02-15T07:36:19;2.83;;;1.93;;
10458;SDS011;5277;48.722;8.736;2024-02-15T07:38:49;5.40;;;1.92;;
10458;SDS011;5277;48.722;8.736;2024-02-15T07:41:22;3.20;;;1.80;;
10458;SDS011;5277;48.722;8.736;2024-02-15T07:43:48;2.03;;;1.65;;
10458;SDS011;5277;48.722;8.736;2024-02-15T07:46:15;4.13;;;1.88;;
10458;SDS011;5277;48.722;8.736;2024-02-15T07:48:41;8.37;;;2.33;;
10458;SDS011;5277;48.722;8.736;2024-02-15T07:51:17;3.20;;;1.90;;
10458;SDS011;5277;48.722;8.736;2024-02-15T07:53:44;3.78;;;2.15;;
10458;SDS011;5277;48.722;8.736;2024-02-15T07:56:11;3.58;;;1.88;;
10458;SDS011;5277;48.722;8.736;2024-02-15T07:58:41;3.25;;;1.95;;
10458;SDS011;5277;48.722;8.736;2024-02-15T08:01:12;4.40;;;1.90;;
10458;SDS011;5277;48.722;8.736;2024-02-15T08:03:39;2.75;;;1.95;;
10458;SDS011;5277;48.722;8.736;2024-02-15T08:06:11;3.28;;;2.17;;
10458;SDS011;5277;48.722;8.736;2024-02-15T08:08:41;4.53;;;2.00;;
10458;SDS011;5277;48.722;8.736;2024-02-15T08:11:08;3.13;;;1.90;;
10458;SDS011;5277;48.722;8.736;2024-02-15T08:13:40;3.00;;;2.03;;
10458;SDS011;5277;48.722;8.736;2024-02-15T08:16:10;6.28;;;2.00;;
10458;SDS011;5277;48.722;8.736;2024-02-15T08:18:37;3.55;;;2.17;;
10458;SDS011;5277;48.722;8.736;2024-02-15T08:21:04;2.90;;;1.92;;
10458;SDS011;5277;48.722;8.736;2024-02-15T08:23:30;5.25;;;1.90;;
10458;SDS011;5277;48.722;8.736;2024-02-15T08:25:57;2.90;;;2.15;;
10458;SDS011;5277;48.722;8.736;2024-02-15T08:28:22;4.30;;;2.30;;
10458;SDS011;5277;48.722;8.736;2024-02-15T08:30:48;3.60;;;2.42;;
10458;SDS011;5277;48.722;8.736;2024-02-15T08:33:13;5.15;;;2.60;;
10458;SDS011;5277;48.722;8.736;2024-02-15T08:35:39;3.47;;;2.20;;
10458;SDS011;5277;48.722;8.736;2024-02-15T08:38:06;3.63;;;2.10;;
10458;SDS011;5277;48.722;8.736;2024-02-15T08:40:32;4.55;;;2.13;;
10458;SDS011;5277;48.722;8.736;2024-02-15T08:42:57;3.35;;;2.17;;
10458;SDS011;5277;48.722;8.736;2024-02-15T08:45:23;3.00;;;2.20;;
10458;SDS011;5277;48.722;8.736;2024-02-15T08:47:49;3.72;;;2.20;;
10458;SDS011;5277;48.722;8.736;2024-02-15T08:50:17;3.50;;;2.63;;
10458;SDS011;5277;48.722;8.736;2024-02-15T08:52:43;5.97;;;2.35;;
10458;SDS011;5277;48.722;8.736;2024-02-15T08:55:10;5.60;;;2.30;;
10458;SDS011;5277;48.722;8.736;2024-02-15T08:57:39;4.20;;;2.17;;
10458;SDS011;5277;48.722;8.736;2024-02-15T09:00:06;4.55;;;2.10;;
10458;SDS011;5277;48.722;8.736;2024-02-15T09:02:38;4.20;;;1.90;;
10458;SDS011;5277;48.722;8.736;2024-02-15T09:05:10;2.70;;;1.83;;
10458;SDS011;5277;48.722;8.736;2024-02-15T09:07:39;2.72;;;1.98;;
10458;SDS011;5277;48.722;8.736;2024-02-15T09:10:12;2.38;;;1.80;;
10458;SDS011;5277;48.722;8.736;2024-02-15T09:12:42;2.72;;;1.67;;
10458;SDS011;5277;48.722;8.736;2024-02-15T09:15:09;3.45;;;1.98;;
10458;SDS011;5277;48.722;8.736;2024-02-15T09:17:41;3.58;;;2.00;;
10458;SDS011;5277;48.722;8.736;2024-02-15T09:20:09;3.53;;;2.03;;
10458;SDS011;5277;48.722;8.736;2024-02-15T09:22:49;3.45;;;1.98;;
10458;SDS011;5277;48.722;8.736;2024-02-15T09:25:16;4.10;;;2.35;;
10458;SDS011;5277;48.722;8.736;2024-02-15T09:27:43;4.15;;;2.08;;
10458;SDS011;5277;48.722;8.736;2024-02-15T09:30:09;4.70;;;2.47;;
10458;SDS011;5277;48.722;8.736;2024-02-15T09:32:36;5.43;;;2.13;;
10458;SDS011;5277;48.722;8.736;2024-02-15T09:35:02;3.65;;;2.33;;
10458;SDS011;5277;48.722;8.736;2024-02-15T09:37:32;3.53;;;2.00;;
10458;SDS011;5277;48.722;8.736;2024-02-15T09:40:03;3.58;;;2.15;;
10458;SDS011;5277;48.722;8.736;2024-02-15T09:42:33;9.55;;;2.88;;
10458;SDS011;5277;48.722;8.736;2024-02-15T09:45:00;4.93;;;2.58;;
10458;SDS011;5277;48.722;8.736;2024-02-15T09:47:27;5.72;;;3.10;;
10458;SDS011;5277;48.722;8.736;2024-02-15T09:50:02;4.60;;;2.50;;
10458;SDS011;5277;48.722;8.736;2024-02-15T09:52:39;5.60;;;2.38;;
10458;SDS011;5277;48.722;8.736;2024-02-15T09:55:08;4.72;;;2.50;;
10458;SDS011;5277;48.722;8.736;2024-02-15T09:57:38;5.07;;;2.90;;
10458;SDS011;5277;48.722;8.736;2024-02-15T10:00:04;4.43;;;2.45;;
10458;SDS011;5277;48.722;8.736;2024-02-15T10:02:32;4.30;;;2.45;;
10458;SDS011;5277;48.722;8.736;2024-02-15T10:05:01;4.90;;;2.42;;
10458;SDS011;5277;48.722;8.736;2024-02-15T10:07:27;5.47;;;2.42;;
10458;SDS011;5277;48.722;8.736;2024-02-15T10:09:53;4.70;;;3.00;;
10458;SDS011;5277;48.722;8.736;2024-02-15T10:12:19;5.15;;;3.05;;
10458;SDS011;5277;48.722;8.736;2024-02-15T10:14:48;3.53;;;2.75;;
10458;SDS011;5277;48.722;8.736;2024-02-15T10:17:15;4.70;;;2.75;;
10458;SDS011;5277;48.722;8.736;2024-02-15T10:19:42;4.72;;;2.33;;
10458;SDS011;5277;48.722;8.736;2024-02-15T10:22:09;5.40;;;2.90;;
10458;SDS011;5277;48.722;8.736;2024-02-15T10:24:36;6.13;;;2.97;;
10458;SDS011;5277;48.722;8.736;2024-02-15T10:27:04;3.47;;;2.50;;
10458;SDS011;5277;48.722;8.736;2024-02-15T10:29:35;4.18;;;2.53;;
10458;SDS011;5277;48.722;8.736;2024-02-15T10:32:02;4.60;;;2.78;;
10458;SDS011;5277;48.722;8.736;2024-02-15T10:34:28;4.47;;;2.60;;
10458;SDS011;5277;48.722;8.736;2024-02-15T10:36:56;3.58;;;2.58;;
10458;SDS011;5277;48.722;8.736;2024-02-15T10:39:39;3.80;;;2.30;;
10458;SDS011;5277;48.722;8.736;2024-02-15T10:42:08;3.25;;;2.10;;
10458;SDS011;5277;48.722;8.736;2024-02-15T10:44:37;3.08;;;2.17;;
10458;SDS011;5277;48.722;8.736;2024-02-15T10:47:05;3.72;;;1.77;;
10458;SDS011;5277;48.722;8.736;2024-02-15T10:49:32;3.70;;;2.03;;
10458;SDS011;5277;48.722;8.736;2024-02-15T10:51:59;3.00;;;1.67;;
10458;SDS011;5277;48.722;8.736;2024-02-15T10:57:28;3.33;;;1.50;;
10458;SDS011;5277;48.722;8.736;2024-02-15T10:59:56;4.10;;;1.80;;
10458;SDS011;5277;48.722;8.736;2024-02-15T11:02:25;2.88;;;1.55;;
10458;SDS011;5277;48.722;8.736;2024-02-15T11:04:54;4.25;;;1.70;;
10458;SDS011;5277;48.722;8.736;2024-02-15T11:07:26;2.33;;;1.50;;
10458;SDS011;5277;48.722;8.736;2024-02-15T11:09:53;2.88;;;1.73;;
10458;SDS011;5277;48.722;8.736;2024-02-15T11:12:21;4.43;;;1.67;;
10458;SDS011;5277;48.722;8.736;2024-02-15T11:14:51;4.85;;;1.70;;
10458;SDS011;5277;48.722;8.736;2024-02-15T11:20:02;3.15;;;1.55;;
10458;SDS011;5277;48.722;8.736;2024-02-15T11:22:35;3.67;;;1.50;;
10458;SDS011;5277;48.722;8.736;2024-02-15T11:25:07;2.35;;;1.63;;
10458;SDS011;5277;48.722;8.736;2024-02-15T11:27:34;2.85;;;1.85;;
10458;SDS011;5277;48.722;8.736;2024-02-15T11:30:02;4.38;;;1.60;;
10458;SDS011;5277;48.722;8.736;2024-02-15T11:32:35;2.80;;;1.40;;
10458;SDS011;5277;48.722;8.736;2024-02-15T11:35:05;4.25;;;1.30;;
10458;SDS011;5277;48.722;8.736;2024-02-15T11:40:20;4.93;;;1.58;;
10458;SDS011;5277;48.722;8.736;2024-02-15T11:42:54;3.17;;;1.40;;
10458;SDS011;5277;48.722;8.736;2024-02-15T11:45:24;3.45;;;1.75;;
10458;SDS011;5277;48.722;8.736;2024-02-15T11:47:51;2.25;;;1.45;;
10458;SDS011;5277;48.722;8.736;2024-02-15T11:50:19;3.10;;;1.30;;
10458;SDS011;5277;48.722;8.736;2024-02-15T11:52:46;2.40;;;1.20;;
10458;SDS011;5277;48.722;8.736;2024-02-15T11:55:14;4.30;;;1.55;;
10458;SDS011;5277;48.722;8.736;2024-02-15T11:57:53;3.90;;;1.33;;
10458;SDS011;5277;48.722;8.736;2024-02-15T12:00:29;3.67;;;1.60;;
10458;SDS011;5277;48.722;8.736;2024-02-15T12:03:14;2.28;;;1.30;;
10458;SDS011;5277;48.722;8.736;2024-02-15T12:06:00;1.80;;;1.20;;
10458;SDS011;5277;48.722;8.736;2024-02-15T12:08:45;3.65;;;1.70;;
10458;SDS011;5277;48.722;8.736;2024-02-15T12:11:30;2.97;;;1.23;;
10458;SDS011;5277;48.722;8.736;2024-02-15T12:14:15;8.90;;;1.70;;
10458;SDS011;5277;48.722;8.736;2024-02-15T12:17:00;2.42;;;1.50;;
10458;SDS011;5277;48.722;8.736;2024-02-15T12:19:44;2.55;;;1.40;;
10458;SDS011;5277;48.722;8.736;2024-02-15T12:22:11;3.88;;;1.50;;
10458;SDS011;5277;48.722;8.736;2024-02-15T12:24:37;3.28;;;1.40;;
10458;SDS011;5277;48.722;8.736;2024-02-15T12:27:03;3.65;;;1.58;;
10458;SDS011;5277;48.722;8.736;2024-02-15T12:29:29;2.78;;;1.55;;
10458;SDS011;5277;48.722;8.736;2024-02-15T12:31:54;3.05;;;1.27;;
10458;SDS011;5277;48.722;8.736;2024-02-15T12:34:21;2.47;;;1.73;;
10458;SDS011;5277;48.722;8.736;2024-02-15T12:36:46;3.08;;;1.70;;
10458;SDS011;5277;48.722;8.736;2024-02-15T12:39:14;3.05;;;1.70;;
10458;SDS011;5277;48.722;8.736;2024-02-15T12:41:49;2.35;;;1.50;;
10458;SDS011;5277;48.722;8.736;2024-02-15T12:44:15;3.63;;;1.60;;
10458;SDS011;5277;48.722;8.736;2024-02-15T12:46:42;2.15;;;1.40;;
10458;SDS011;5277;48.722;8.736;2024-02-15T12:49:28;7.22;;;5.30;;
10458;SDS011;5277;48.722;8.736;2024-02-15T12:52:32;4.72;;;2.50;;
10458;SDS011;5277;48.722;8.736;2024-02-15T12:55:13;2.35;;;1.52;;
10458;SDS011;5277;48.722;8.736;2024-02-15T12:57:44;1.70;;;1.13;;
10458;SDS011;5277;48.722;8.736;2024-02-15T13:00:14;3.47;;;1.60;;
10458;SDS011;5277;48.722;8.736;2024-02-15T13:02:45;1.73;;;1.23;;
10458;SDS011;5277;48.722;8.736;2024-02-15T13:05:14;3.97;;;1.85;;
10458;SDS011;5277;48.722;8.736;2024-02-15T13:07:40;2.70;;;1.30;;
10458;SDS011;5277;48.722;8.736;2024-02-15T13:10:06;3.58;;;1.40;;
10458;SDS011;5277;48.722;8.736;2024-02-15T13:12:35;1.73;;;1.40;;
10458;SDS011;5277;48.722;8.736;2024-02-15T13:15:03;3.53;;;1.60;;
10458;SDS011;5277;48.722;8.736;2024-02-15T13:17:30;2.90;;;1.40;;
10458;SDS011;5277;48.722;8.736;2024-02-15T13:19:56;3.20;;;1.65;;
10458;SDS011;5277;48.722;8.736;2024-02-15T13:22:30;2.08;;;1.50;;
10458;SDS011;5277;48.722;8.736;2024-02-15T13:24:56;4.07;;;1.48;;
10458;SDS011;5277;48.722;8.736;2024-02-15T13:27:21;5.20;;;1.30;;
10458;SDS011;5277;48.722;8.736;2024-02-15T13:29:48;3.28;;;1.50;;
10458;SDS011;5277;48.722;8.736;2024-02-15T13:32:18;1.63;;;1.23;;
10458;SDS011;5277;48.722;8.736;2024-02-15T13:34:46;3.05;;;1.50;;
10458;SDS011;5277;48.722;8.736;2024-02-15T13:37:21;3.42;;;1.60;;
10458;SDS011;5277;48.722;8.736;2024-02-15T13:39:48;3.70;;;1.50;;
10458;SDS011;5277;48.722;8.736;2024-02-15T13:42:14;3.70;;;1.50;;
10458;SDS011;5277;48.722;8.736;2024-02-15T13:44:41;2.78;;;1.60;;
10458;SDS011;5277;48.722;8.736;2024-02-15T13:47:12;3.17;;;1.35;;
10458;SDS011;5277;48.722;8.736;2024-02-15T13:49:38;3.50;;;1.75;;
10458;SDS011;5277;48.722;8.736;2024-02-15T13:52:04;2.05;;;1.50;;
10458;SDS011;5277;48.722;8.736;2024-02-15T13:54:31;2.38;;;1.50;;
10458;SDS011;5277;48.722;8.736;2024-02-15T13:56:58;3.85;;;1.63;;
10458;SDS011;5277;48.722;8.736;2024-02-15T13:59:27;2.83;;;1.75;;
10458;SDS011;5277;48.722;8.736;2024-02-15T14:01:56;3.67;;;1.60;;
10458;SDS011;5277;48.722;8.736;2024-02-15T14:04:23;3.33;;;1.70;;
10458;SDS011;5277;48.722;8.736;2024-02-15T14:06:48;3.65;;;1.70;;
10458;SDS011;5277;48.722;8.736;2024-02-15T14:09:14;4.68;;;1.75;;
10458;SDS011;5277;48.722;8.736;2024-02-15T14:11:42;3.90;;;1.70;;
10458;SDS011;5277;48.722;8.736;2024-02-15T14:14:08;4.47;;;1.80;;
10458;SDS011;5277;48.722;8.736;2024-02-15T14:16:33;5.45;;;2.10;;
10458;SDS011;5277;48.722;8.736;2024-02-15T14:18:59;8.48;;;2.00;;
10458;SDS011;5277;48.722;8.736;2024-02-15T14:21:25;2.88;;;1.50;;
10458;SDS011;5277;48.722;8.736;2024-02-15T14:23:51;3.58;;;1.75;;
10458;SDS011;5277;48.722;8.736;2024-02-15T14:26:16;3.03;;;1.83;;
10458;SDS011;5277;48.722;8.736;2024-02-15T14:28:42;5.45;;;1.60;;
10458;SDS011;5277;48.722;8.736;2024-02-15T14:31:10;2.05;;;1.50;;
10458;SDS011;5277;48.722;8.736;2024-02-15T14:33:54;5.30;;;1.70;;
10458;SDS011;5277;48.722;8.736;2024-02-15T14:36:20;3.47;;;1.65;;
10458;SDS011;5277;48.722;8.736;2024-02-15T14:38:46;6.53;;;1.80;;
10458;SDS011;5277;48.722;8.736;2024-02-15T14:41:12;4.95;;;1.98;;
10458;SDS011;5277;48.722;8.736;2024-02-15T14:43:37;2.53;;;1.70;;
10458;SDS011;5277;48.722;8.736;2024-02-15T14:46:03;6.00;;;1.30;;
10458;SDS011;5277;48.722;8.736;2024-02-15T14:48:34;2.78;;;1.58;;
10458;SDS011;5277;48.722;8.736;2024-02-15T14:50:59;3.20;;;1.60;;
10458;SDS011;5277;48.722;8.736;2024-02-15T14:53:25;7.70;;;1.40;;
10458;SDS011;5277;48.722;8.736;2024-02-15T14:55:52;3.15;;;1.40;;
10458;SDS011;5277;48.722;8.736;2024-02-15T14:58:19;2.72;;;1.40;;
10458;SDS011;5277;48.722;8.736;2024-02-15T15:00:47;5.93;;;1.75;;
10458;SDS011;5277;48.722;8.736;2024-02-15T15:03:12;5.38;;;1.70;;
10458;SDS011;5277;48.722;8.736;2024-02-15T15:05:39;3.03;;;1.30;;
10458;SDS011;5277;48.722;8.736;2024-02-15T15:08:24;2.42;;;1.70;;
10458;SDS011;5277;48.722;8.736;2024-02-15T15:11:08;3.42;;;1.30;;
10458;SDS011;5277;48.722;8.736;2024-02-15T15:13:53;4.25;;;1.42;;
10458;SDS011;5277;48.722;8.736;2024-02-15T15:16:18;4.35;;;1.50;;